Time;durP1;ratioP1;P1;durP2;ratioP2;P2;SDS_P1;SDS_P2;PMS_P1;PMS_P2;Temp;Humidity;BMP_temperature;BMP_pressure;BME280_temperature;BME280_humidity;BME280_pressure;Samples;Min_cycle;Max_cycle;Signal;HPM_P1;HPM_P2
2023/12/27 00:00:37;;;;;;;15.95;5.30;;;5.60;99.90;;;;;;5032727;28;20030;-53
2023/12/27 00:03:02;;;;;;;14.10;5.03;;;5.50;99.90;;;;;;5033525;28;20034;-54
2023/12/27 00:05:28;;;;;;;13.80;5.40;;;5.50;99.90;;;;;;5035600;28;20535;-52
2023/12/27 00:07:54;;;;;;;10.57;5.35;;;5.50;99.90;;;;;;5035667;28;20071;-53
2023/12/27 00:10:20;;;;;;;13.40;5.82;;;5.40;99.90;;;;;;5035194;28;20025;-52
2023/12/27 00:12:45;;;;;;;14.40;5.03;;;5.40;99.90;;;;;;5035535;28;20034;-53
2023/12/27 00:15:11;;;;;;;16.15;5.25;;;5.40;99.90;;;;;;5034840;28;20116;-53
2023/12/27 00:17:36;;;;;;;19.77;5.95;;;5.40;99.90;;;;;;5034847;28;20021;-51
2023/12/27 00:20:02;;;;;;;15.98;5.80;;;5.30;99.90;;;;;;5034582;28;20080;-53
2023/12/27 00:22:28;;;;;;;9.75;4.95;;;5.30;99.90;;;;;;5035564;28;20572;-54
2023/12/27 00:24:54;;;;;;;10.30;4.05;;;5.30;99.90;;;;;;5035382;28;20048;-53
2023/12/27 00:27:19;;;;;;;11.05;4.82;;;5.30;99.90;;;;;;5034932;28;20021;-52
2023/12/27 00:29:45;;;;;;;14.52;4.78;;;5.30;99.90;;;;;;5035151;28;20068;-52
2023/12/27 00:32:11;;;;;;;12.85;5.25;;;5.30;99.90;;;;;;5034625;28;20460;-52
2023/12/27 00:34:38;;;;;;;11.52;5.43;;;5.30;99.90;;;;;;5034902;28;20029;-51
2023/12/27 00:37:04;;;;;;;16.30;6.05;;;5.20;99.90;;;;;;5035175;28;20469;-53
2023/12/27 00:39:30;;;;;;;17.70;5.00;;;5.20;99.90;;;;;;5034290;28;20030;-49
2023/12/27 00:41:57;;;;;;;15.75;5.93;;;5.20;99.90;;;;;;5034803;28;20167;-54
2023/12/27 00:44:22;;;;;;;18.23;6.78;;;5.20;99.90;;;;;;5035162;28;20036;-54
2023/12/27 00:46:48;;;;;;;18.02;5.32;;;5.20;99.90;;;;;;5034725;28;20390;-53
2023/12/27 00:49:14;;;;;;;10.98;6.45;;;5.30;99.90;;;;;;5034681;28;20482;-53
2023/12/27 00:51:40;;;;;;;16.65;5.90;;;5.30;99.90;;;;;;5034793;28;20033;-54
2023/12/27 00:54:06;;;;;;;16.10;5.55;;;5.30;99.90;;;;;;5034150;28;20022;-54
2023/12/27 00:56:31;;;;;;;11.57;5.82;;;5.40;99.90;;;;;;5034368;28;20038;-53
2023/12/27 00:58:58;;;;;;;12.40;5.55;;;5.40;99.90;;;;;;5034465;28;20022;-54
2023/12/27 01:01:23;;;;;;;11.93;5.78;;;5.40;99.90;;;;;;5034405;28;20048;-53
2023/12/27 01:03:49;;;;;;;11.93;5.75;;;5.40;99.90;;;;;;5033255;28;20029;-53
2023/12/27 01:06:15;;;;;;;17.98;6.20;;;5.30;99.90;;;;;;5034460;28;20405;-53
2023/12/27 01:08:40;;;;;;;16.88;8.60;;;5.30;99.90;;;;;;5034453;28;20037;-53
2023/12/27 01:11:06;;;;;;;16.23;7.05;;;5.30;99.90;;;;;;5033392;28;20036;-52
2023/12/27 01:13:32;;;;;;;18.35;6.75;;;5.40;99.90;;;;;;5034188;28;20037;-52
2023/12/27 01:15:59;;;;;;;12.90;5.55;;;5.60;99.90;;;;;;5032537;28;20536;-53
2023/12/27 01:18:25;;;;;;;15.32;6.65;;;5.60;99.90;;;;;;5033991;28;20524;-52
2023/12/27 01:20:50;;;;;;;16.40;6.05;;;5.70;99.90;;;;;;5034198;28;20045;-54
2023/12/27 01:23:16;;;;;;;15.10;5.55;;;5.80;99.90;;;;;;5032585;28;20030;-55
2023/12/27 01:25:42;;;;;;;27.48;6.68;;;5.80;99.90;;;;;;5034376;28;20438;-53
2023/12/27 01:28:07;;;;;;;22.15;8.00;;;5.70;99.90;;;;;;5034157;28;20025;-54
2023/12/27 01:30:33;;;;;;;19.58;6.75;;;5.80;99.90;;;;;;5030542;28;20026;-52
2023/12/27 01:33:01;;;;;;;31.38;8.10;;;5.70;99.90;;;;;;5033903;28;20037;-53
2023/12/27 01:35:27;;;;;;;;;;;5.70;99.90;;;;;;5032654;28;20529;-52
2023/12/27 01:37:53;;;;;;;15.80;6.05;;;5.70;99.90;;;;;;5033167;28;19909;-54
2023/12/27 01:40:18;;;;;;;18.83;6.28;;;5.70;99.90;;;;;;5033917;28;20087;-51
2023/12/27 01:42:44;;;;;;;21.52;6.85;;;5.70;99.90;;;;;;5032736;28;20079;-54
2023/12/27 01:45:10;;;;;;;17.48;5.68;;;5.60;99.90;;;;;;5032203;28;20025;-53
2023/12/27 01:47:37;;;;;;;24.63;7.10;;;5.70;99.90;;;;;;5031145;28;20462;-54
2023/12/27 01:50:10;;;;;;;23.57;7.43;;;5.70;99.90;;;;;;5033540;28;20083;-55
2023/12/27 01:52:37;;;;;;;14.40;6.50;;;5.70;99.90;;;;;;5033380;28;20264;-53
2023/12/27 01:55:03;;;;;;;20.48;6.97;;;5.60;99.90;;;;;;5033533;28;20037;-53
2023/12/27 01:57:29;;;;;;;17.63;6.13;;;5.60;99.90;;;;;;5033171;28;20489;-55
2023/12/27 01:59:55;;;;;;;19.10;7.60;;;5.60;99.90;;;;;;5032204;28;20044;-53
2023/12/27 02:02:22;;;;;;;23.45;7.80;;;5.60;99.90;;;;;;5033055;28;20092;-52
2023/12/27 02:04:48;;;;;;;18.38;7.15;;;5.60;99.90;;;;;;5032022;28;20029;-51
2023/12/27 02:07:14;;;;;;;17.35;6.07;;;5.60;99.90;;;;;;5032580;28;20367;-54
2023/12/27 02:09:40;;;;;;;21.70;6.93;;;5.60;99.90;;;;;;5033171;28;20640;-53
2023/12/27 02:12:06;;;;;;;20.73;6.47;;;5.60;99.90;;;;;;5032229;28;20112;-55
2023/12/27 02:14:32;;;;;;;19.75;7.45;;;5.60;99.90;;;;;;5032874;28;20061;-54
2023/12/27 02:16:59;;;;;;;14.90;7.03;;;5.60;99.90;;;;;;5032872;28;20400;-61
2023/12/27 02:19:27;;;;;;;28.00;7.70;;;5.60;99.90;;;;;;5028880;28;20539;-54
2023/12/27 02:21:54;;;;;;;16.30;6.03;;;5.70;99.90;;;;;;5031323;28;20105;-54
2023/12/27 02:24:21;;;;;;;12.55;6.88;;;5.60;99.90;;;;;;5031440;28;20490;-55
2023/12/27 02:26:47;;;;;;;18.08;8.80;;;5.70;99.90;;;;;;5032751;28;20486;-51
2023/12/27 02:29:14;;;;;;;20.00;6.63;;;5.70;99.90;;;;;;5032937;28;20030;-54
2023/12/27 02:31:40;;;;;;;18.45;6.47;;;5.80;99.90;;;;;;5032932;28;20029;-53
2023/12/27 02:34:05;;;;;;;15.38;6.15;;;5.80;99.90;;;;;;5032655;28;20165;-52
2023/12/27 02:36:31;;;;;;;14.02;5.68;;;5.70;99.90;;;;;;5032768;28;20091;-54
2023/12/27 02:38:56;;;;;;;21.13;6.50;;;5.70;99.90;;;;;;5031494;28;20040;-53
2023/12/27 02:41:22;;;;;;;19.67;6.45;;;5.70;99.90;;;;;;5032169;28;20022;-52
2023/12/27 02:43:48;;;;;;;17.38;5.65;;;5.80;99.90;;;;;;5033039;28;20448;-53
2023/12/27 02:46:14;;;;;;;11.07;5.90;;;5.90;99.90;;;;;;5031589;28;20034;-53
2023/12/27 02:48:39;;;;;;;14.40;6.75;;;5.90;99.90;;;;;;5032486;28;20040;-53
2023/12/27 02:51:06;;;;;;;13.15;6.03;;;5.90;99.90;;;;;;5031314;28;20029;-53
2023/12/27 02:53:31;;;;;;;23.95;5.82;;;5.90;99.90;;;;;;5032291;28;20547;-53
2023/12/27 02:55:57;;;;;;;13.85;5.75;;;6.00;99.90;;;;;;5032976;28;20037;-49
2023/12/27 02:58:23;;;;;;;19.73;7.28;;;6.00;99.90;;;;;;5031706;28;20021;-54
2023/12/27 03:00:49;;;;;;;14.85;5.78;;;6.00;99.90;;;;;;5032566;28;20021;-52
2023/12/27 03:03:15;;;;;;;12.95;4.90;;;5.90;99.90;;;;;;5030788;28;20018;-52
2023/12/27 03:05:41;;;;;;;17.75;5.85;;;5.90;99.90;;;;;;5031943;28;20360;-51
2023/12/27 03:08:06;;;;;;;15.38;5.35;;;5.90;99.90;;;;;;5032177;28;20021;-54
2023/12/27 03:10:32;;;;;;;18.65;5.97;;;6.10;99.90;;;;;;5031764;28;20018;-51
2023/12/27 03:12:58;;;;;;;11.75;5.30;;;6.10;99.90;;;;;;5032551;28;20029;-54
2023/12/27 03:15:24;;;;;;;17.17;6.75;;;6.20;99.90;;;;;;5033407;28;20042;-52
2023/12/27 03:17:49;;;;;;;12.90;5.25;;;6.20;99.90;;;;;;5032262;28;20022;-52
2023/12/27 03:20:15;;;;;;;11.32;5.25;;;6.20;99.90;;;;;;5030867;28;20389;-54
2023/12/27 03:22:40;;;;;;;12.73;5.47;;;6.20;99.90;;;;;;5032502;28;20351;-54
2023/12/27 03:25:06;;;;;;;15.10;5.65;;;6.20;99.90;;;;;;5032696;28;20061;-54
2023/12/27 03:27:32;;;;;;;13.63;5.20;;;6.30;99.90;;;;;;5036306;28;20025;-56
2023/12/27 03:29:57;;;;;;;14.85;5.47;;;6.30;99.90;;;;;;5036327;28;20033;-56
2023/12/27 03:32:24;;;;;;;34.08;8.95;;;6.30;99.90;;;;;;5035106;28;20049;-50
2023/12/27 03:34:50;;;;;;;24.77;8.77;;;6.30;99.90;;;;;;5036212;28;20444;-55
2023/12/27 03:37:15;;;;;;;387.85;103.28;;;6.40;99.90;;;;;;5035944;28;20508;-53
2023/12/27 03:39:46;;;;;;;131.88;38.38;;;6.40;99.90;;;;;;5035644;28;20076;-54
2023/12/27 03:42:12;;;;;;;134.25;36.42;;;6.40;99.90;;;;;;5035661;28;20029;-52
2023/12/27 03:44:38;;;;;;;108.25;40.53;;;6.40;99.90;;;;;;5040175;28;20025;-54
2023/12/27 03:47:04;;;;;;;45.35;16.38;;;6.30;99.90;;;;;;5035002;28;20152;-54
2023/12/27 03:49:29;;;;;;;57.90;20.20;;;6.30;99.90;;;;;;5034526;28;20504;-56
2023/12/27 03:51:55;;;;;;;29.67;10.10;;;6.30;99.90;;;;;;5038408;28;20055;-53
2023/12/27 03:54:21;;;;;;;139.10;46.80;;;6.30;99.90;;;;;;5043013;28;20025;-54
2023/12/27 03:56:46;;;;;;;30.52;13.30;;;6.30;99.90;;;;;;5034344;28;20025;-54
2023/12/27 03:59:12;;;;;;;17.45;8.82;;;6.20;99.90;;;;;;5035706;28;20029;-54
2023/12/27 04:01:38;;;;;;;27.85;11.00;;;6.20;99.90;;;;;;5034549;28;20052;-54
2023/12/27 04:04:04;;;;;;;17.90;8.10;;;6.30;99.90;;;;;;5035638;28;20024;-53
2023/12/27 04:06:29;;;;;;;13.93;5.15;;;6.30;99.90;;;;;;5033800;28;20026;-53
2023/12/27 04:08:55;;;;;;;19.52;6.00;;;6.30;99.90;;;;;;5033522;28;20490;-54
2023/12/27 04:11:20;;;;;;;17.25;10.25;;;6.20;99.90;;;;;;5035347;28;20385;-54
2023/12/27 04:13:46;;;;;;;42.58;18.70;;;6.20;99.90;;;;;;5035515;28;20056;-53
2023/12/27 04:16:12;;;;;;;23.20;9.18;;;6.20;99.90;;;;;;5035167;28;20141;-53
2023/12/27 04:18:38;;;;;;;22.08;6.30;;;6.20;99.90;;;;;;5034672;28;20030;-54
2023/12/27 04:21:04;;;;;;;21.85;10.18;;;6.20;99.90;;;;;;5035127;28;20052;-54
2023/12/27 04:23:30;;;;;;;17.05;4.53;;;6.20;99.90;;;;;;5034977;28;20040;-54
2023/12/27 04:25:56;;;;;;;25.45;12.38;;;6.20;99.90;;;;;;5035596;28;20425;-54
2023/12/27 04:28:22;;;;;;;18.10;7.53;;;6.20;99.90;;;;;;5034896;28;20025;-53
2023/12/27 04:30:48;;;;;;;16.23;6.53;;;6.20;99.90;;;;;;5035417;28;20018;-54
2023/12/27 04:33:13;;;;;;;16.17;4.85;;;6.20;99.90;;;;;;5034899;28;20029;-54
2023/12/27 04:35:39;;;;;;;10.43;4.95;;;6.20;99.90;;;;;;5033583;28;20044;-52
2023/12/27 04:38:05;;;;;;;15.10;5.20;;;6.20;99.90;;;;;;5032814;28;20076;-54
2023/12/27 04:40:31;;;;;;;13.48;4.93;;;6.30;99.90;;;;;;5034925;28;20382;-59
2023/12/27 04:42:57;;;;;;;15.65;4.95;;;6.30;99.90;;;;;;5033401;28;20022;-54
2023/12/27 04:45:22;;;;;;;18.83;5.32;;;6.30;99.90;;;;;;5035132;28;20448;-54
2023/12/27 04:47:48;;;;;;;11.20;4.28;;;6.30;99.90;;;;;;5034532;28;20398;-51
2023/12/27 04:50:14;;;;;;;11.43;5.07;;;6.30;99.90;;;;;;5034589;28;20029;-53
2023/12/27 04:52:39;;;;;;;8.27;4.57;;;6.30;99.90;;;;;;5034813;28;20526;-52
2023/12/27 04:55:05;;;;;;;10.57;4.20;;;6.30;99.90;;;;;;5034637;28;20029;-53
2023/12/27 04:57:31;;;;;;;17.75;4.68;;;6.30;99.90;;;;;;5033740;28;20367;-52
2023/12/27 04:59:56;;;;;;;13.38;5.18;;;6.30;99.90;;;;;;5033220;28;20029;-53
2023/12/27 05:02:22;;;;;;;12.75;5.15;;;6.30;99.90;;;;;;5033841;28;20462;-51
2023/12/27 05:04:48;;;;;;;19.58;5.60;;;6.40;99.90;;;;;;5033914;28;20071;-54
2023/12/27 05:07:14;;;;;;;17.52;4.97;;;6.40;99.90;;;;;;5033208;28;20457;-53
2023/12/27 05:09:40;;;;;;;14.95;4.63;;;6.40;99.90;;;;;;5031965;28;20038;-50
2023/12/27 05:12:06;;;;;;;21.75;5.20;;;6.40;99.90;;;;;;5032293;28;20479;-51
2023/12/27 05:14:31;;;;;;;12.45;4.22;;;6.40;99.90;;;;;;5032806;28;20060;-53
2023/12/27 05:16:57;;;;;;;22.95;4.38;;;6.40;99.90;;;;;;5032896;28;20425;-54
2023/12/27 05:19:22;;;;;;;9.82;4.18;;;6.40;99.90;;;;;;5027949;28;20501;-52
2023/12/27 05:21:48;;;;;;;10.20;4.07;;;6.40;99.90;;;;;;5020934;28;20093;-52
2023/12/27 05:24:14;;;;;;;18.15;5.15;;;6.50;99.90;;;;;;5033608;28;20013;-52
2023/12/27 05:26:39;;;;;;;13.68;4.45;;;6.50;99.90;;;;;;5032417;28;20682;-53
2023/12/27 05:29:05;;;;;;;11.50;3.92;;;6.50;99.90;;;;;;5032411;28;20485;-53
2023/12/27 05:31:31;;;;;;;15.30;4.18;;;6.50;99.90;;;;;;5032900;28;20030;-53
2023/12/27 05:33:57;;;;;;;13.90;4.38;;;6.50;99.90;;;;;;5031502;28;20029;-54
2023/12/27 05:36:22;;;;;;;10.75;4.07;;;6.50;99.90;;;;;;5033839;28;20485;-54
2023/12/27 05:38:48;;;;;;;15.93;4.53;;;6.50;99.90;;;;;;5032055;28;20072;-49
2023/12/27 05:41:14;;;;;;;9.75;3.85;;;6.50;99.90;;;;;;5038472;28;20021;-54
2023/12/27 05:43:39;;;;;;;15.10;4.72;;;6.50;99.90;;;;;;5053681;28;20390;-53
2023/12/27 05:46:05;;;;;;;16.40;5.25;;;6.50;99.90;;;;;;5052298;28;20029;-52
2023/12/27 05:48:31;;;;;;;12.07;4.55;;;6.50;99.90;;;;;;5035800;28;20025;-53
2023/12/27 05:50:57;;;;;;;23.83;5.80;;;6.50;99.90;;;;;;5033734;28;20386;-54
2023/12/27 05:53:22;;;;;;;13.73;4.38;;;6.50;99.90;;;;;;5031954;28;20492;-53
2023/12/27 05:55:48;;;;;;;19.05;4.18;;;6.50;99.90;;;;;;5032275;28;20026;-52
2023/12/27 05:58:14;;;;;;;13.10;5.15;;;6.50;99.90;;;;;;5020607;28;20021;-53
2023/12/27 06:00:40;;;;;;;19.25;4.28;;;6.50;99.90;;;;;;5032968;28;20033;-53
2023/12/27 06:03:05;;;;;;;10.85;4.13;;;6.50;99.90;;;;;;5032094;28;20049;-56
2023/12/27 06:05:31;;;;;;;16.10;4.40;;;6.60;99.90;;;;;;5032978;28;20025;-53
2023/12/27 06:07:57;;;;;;;13.73;4.40;;;6.60;99.90;;;;;;5023153;28;20018;-52
2023/12/27 06:10:23;;;;;;;13.70;4.57;;;6.60;99.90;;;;;;5033390;28;20040;-53
2023/12/27 06:12:49;;;;;;;12.98;3.72;;;6.60;99.90;;;;;;5019193;28;20445;-54
2023/12/27 06:15:14;;;;;;;17.05;4.60;;;6.60;99.90;;;;;;5013400;28;20081;-53
2023/12/27 06:17:40;;;;;;;11.50;4.38;;;6.60;99.90;;;;;;5022156;28;20061;-53
2023/12/27 06:20:08;;;;;;;10.05;4.05;;;6.60;99.90;;;;;;5032452;28;20068;-51
2023/12/27 06:22:34;;;;;;;9.93;3.38;;;6.50;99.90;;;;;;5033013;28;20030;-54
2023/12/27 06:25:00;;;;;;;11.57;3.97;;;6.50;99.90;;;;;;5032581;28;20450;-53
2023/12/27 06:27:25;;;;;;;15.52;4.47;;;6.40;99.90;;;;;;5024498;28;20022;-52
2023/12/27 06:29:51;;;;;;;12.65;3.78;;;6.40;99.90;;;;;;5019731;28;20044;-53
2023/12/27 06:32:17;;;;;;;7.28;3.42;;;6.40;99.90;;;;;;5032724;28;20029;-53
2023/12/27 06:34:42;;;;;;;10.68;3.75;;;6.40;99.90;;;;;;5032959;28;20033;-57
2023/12/27 06:37:08;;;;;;;14.10;3.83;;;6.40;99.90;;;;;;5032849;28;20405;-54
2023/12/27 06:39:33;;;;;;;8.10;3.33;;;6.40;99.90;;;;;;5032117;28;20025;-53
2023/12/27 06:42:00;;;;;;;8.18;3.78;;;6.40;99.90;;;;;;5032623;28;20017;-49
2023/12/27 06:44:25;;;;;;;15.23;3.95;;;6.40;99.90;;;;;;5031619;28;20506;-52
2023/12/27 06:46:52;;;;;;;16.55;3.75;;;6.40;99.90;;;;;;5032807;28;20045;-53
2023/12/27 06:49:18;;;;;;;10.38;3.83;;;6.40;99.90;;;;;;5031217;28;20559;-52
2023/12/27 06:51:44;;;;;;;18.20;4.35;;;6.40;99.90;;;;;;5032782;28;20033;-52
2023/12/27 06:54:09;;;;;;;8.23;3.78;;;6.40;99.90;;;;;;5032743;28;20075;-54
2023/12/27 06:56:38;;;;;;;18.00;5.10;;;6.40;99.90;;;;;;5032606;28;20109;-52
2023/12/27 06:59:04;;;;;;;17.50;4.28;;;6.30;99.90;;;;;;5031033;28;20117;-54
2023/12/27 07:01:30;;;;;;;15.32;4.15;;;6.30;99.90;;;;;;5035122;28;20108;-52
2023/12/27 07:03:55;;;;;;;12.80;3.58;;;6.30;99.90;;;;;;5037054;28;20026;-53
2023/12/27 07:06:21;;;;;;;20.63;3.95;;;6.30;99.90;;;;;;5036801;28;20034;-53
2023/12/27 07:08:47;;;;;;;18.67;4.97;;;6.30;99.90;;;;;;5036276;28;20037;-53
2023/12/27 07:11:19;;;;;;;15.18;4.15;;;6.30;99.90;;;;;;5036635;28;20033;-53
2023/12/27 07:13:47;;;;;;;16.63;3.78;;;6.30;99.90;;;;;;5036194;28;20425;-53
2023/12/27 07:16:14;;;;;;;14.32;5.85;;;6.30;99.90;;;;;;5036205;28;20045;-53
2023/12/27 07:18:40;;;;;;;9.55;3.83;;;6.30;99.90;;;;;;5036429;28;20035;-53
2023/12/27 07:21:06;;;;;;;9.90;3.45;;;6.40;99.90;;;;;;5036171;28;20026;-53
2023/12/27 07:23:31;;;;;;;17.23;4.53;;;6.30;99.90;;;;;;5035151;28;20036;-52
2023/12/27 07:25:59;;;;;;;20.13;4.15;;;6.40;99.90;;;;;;5036103;28;20397;-52
2023/12/27 07:28:26;;;;;;;23.70;4.60;;;6.30;99.90;;;;;;5036056;28;20492;-52
2023/12/27 07:30:52;;;;;;;11.30;3.47;;;6.40;99.90;;;;;;5034986;28;20100;-53
2023/12/27 07:33:18;;;;;;;6.97;3.83;;;6.30;99.90;;;;;;5035609;28;20132;-52
2023/12/27 07:35:46;;;;;;;15.98;3.58;;;6.40;99.90;;;;;;5036250;28;20549;-52
2023/12/27 07:38:12;;;;;;;7.32;4.22;;;6.40;99.90;;;;;;5035911;28;20547;-49
2023/12/27 07:40:37;;;;;;;11.50;3.85;;;6.40;99.90;;;;;;5035122;28;20025;-52
2023/12/27 07:43:05;;;;;;;19.77;4.80;;;6.40;99.90;;;;;;5035041;28;20482;-50
2023/12/27 07:45:31;;;;;;;11.38;4.20;;;6.40;99.90;;;;;;5036041;28;20026;-48
2023/12/27 07:47:57;;;;;;;3.78;2.80;;;6.40;99.90;;;;;;5035857;28;20033;-51
2023/12/27 07:50:23;;;;;;;8.68;3.97;;;6.40;99.90;;;;;;5035981;28;20017;-53
2023/12/27 07:52:48;;;;;;;9.10;3.40;;;6.50;99.90;;;;;;5035545;28;20033;-53
2023/12/27 07:55:14;;;;;;;8.10;3.53;;;6.50;99.90;;;;;;5035758;28;20029;-54
2023/12/27 07:57:41;;;;;;;9.00;3.60;;;6.50;99.90;;;;;;5035781;28;20386;-51
2023/12/27 08:00:08;;;;;;;13.40;3.90;;;6.50;99.90;;;;;;5045622;28;20025;-50
2023/12/27 08:02:33;;;;;;;9.68;4.18;;;6.50;99.90;;;;;;5047047;28;20026;-46
2023/12/27 08:04:59;;;;;;;9.40;3.33;;;6.50;99.90;;;;;;5035035;28;20029;-49
2023/12/27 08:07:25;;;;;;;4.70;2.60;;;6.50;99.90;;;;;;5035350;28;20018;-48
2023/12/27 08:09:50;;;;;;;8.35;3.45;;;6.60;99.90;;;;;;5034625;28;20048;-47
2023/12/27 08:12:16;;;;;;;9.77;2.95;;;6.60;99.90;;;;;;5035457;28;20528;-46
2023/12/27 08:14:43;;;;;;;6.55;2.78;;;6.50;99.90;;;;;;5035400;28;20044;-48
2023/12/27 08:17:09;;;;;;;3.83;2.83;;;6.60;99.90;;;;;;5035403;28;20033;-49
2023/12/27 08:19:35;;;;;;;10.40;2.92;;;6.60;99.90;;;;;;5035328;28;20504;-52
2023/12/27 08:22:00;;;;;;;5.25;3.05;;;6.60;99.90;;;;;;5033557;28;20435;-51
2023/12/27 08:24:26;;;;;;;4.68;3.05;;;6.60;99.90;;;;;;5035449;28;20022;-53
2023/12/27 08:26:52;;;;;;;9.65;3.58;;;6.60;99.90;;;;;;5034909;28;20033;-50
2023/12/27 08:29:17;;;;;;;3.60;3.13;;;6.70;99.90;;;;;;5035454;28;20398;-51
2023/12/27 08:31:43;;;;;;;10.73;3.80;;;6.80;99.90;;;;;;5034990;28;20037;-49
2023/12/27 08:34:09;;;;;;;4.60;2.50;;;6.80;99.90;;;;;;5033446;28;20026;-48
2023/12/27 08:36:34;;;;;;;7.65;3.33;;;6.80;99.90;;;;;;5035173;28;20029;-51
2023/12/27 08:39:00;;;;;;;6.43;3.42;;;6.80;99.90;;;;;;5035201;28;20022;-51
2023/12/27 08:41:26;;;;;;;7.18;3.70;;;6.80;99.90;;;;;;5033884;28;20018;-50
2023/12/27 08:43:52;;;;;;;5.05;3.17;;;6.80;99.90;;;;;;5046860;28;20018;-50
2023/12/27 08:46:20;;;;;;;3.83;3.45;;;6.80;99.90;;;;;;5015189;28;20491;-52
2023/12/27 08:48:46;;;;;;;9.55;2.92;;;6.80;99.90;;;;;;5015387;28;20105;-53
2023/12/27 08:51:12;;;;;;;5.63;3.30;;;6.90;99.90;;;;;;5033423;28;20513;-53
2023/12/27 08:53:38;;;;;;;5.32;3.50;;;6.90;99.90;;;;;;5034276;28;20113;-49
2023/12/27 08:56:04;;;;;;;7.95;4.57;;;7.00;99.90;;;;;;5034692;28;20382;-53
2023/12/27 08:58:30;;;;;;;5.90;3.97;;;7.00;99.90;;;;;;5020403;28;20041;-52
2023/12/27 09:00:58;;;;;;;8.63;3.72;;;7.00;99.90;;;;;;5014826;28;20034;-52
2023/12/27 09:03:24;;;;;;;8.68;3.42;;;7.00;99.90;;;;;;5032495;28;20052;-48
2023/12/27 09:05:50;;;;;;;7.38;3.80;;;7.00;99.90;;;;;;5032373;28;20060;-50
2023/12/27 09:08:16;;;;;;;5.28;3.72;;;7.10;99.90;;;;;;5033902;28;20032;-50
2023/12/27 09:10:42;;;;;;;4.50;3.33;;;7.10;99.90;;;;;;5034460;28;20039;-49
2023/12/27 09:13:08;;;;;;;4.28;3.38;;;7.20;99.90;;;;;;5034436;28;20029;-52
2023/12/27 09:15:33;;;;;;;4.22;3.35;;;7.10;99.90;;;;;;5033951;28;20049;-51
2023/12/27 09:17:59;;;;;;;4.57;3.38;;;7.20;99.90;;;;;;5034296;28;20033;-53
2023/12/27 09:20:25;;;;;;;7.00;3.70;;;7.30;99.90;;;;;;5034227;28;20072;-50
2023/12/27 09:22:50;;;;;;;7.70;3.47;;;7.40;99.90;;;;;;5023732;28;20364;-49
2023/12/27 09:25:16;;;;;;;11.48;4.13;;;7.40;99.90;;;;;;5032155;28;20024;-53
2023/12/27 09:27:44;;;;;;;5.40;3.47;;;7.50;99.90;;;;;;5033979;28;20025;-53
2023/12/27 09:30:11;;;;;;;6.95;3.85;;;7.60;99.90;;;;;;5034063;28;20104;-47
2023/12/27 09:32:38;;;;;;;4.65;3.80;;;7.60;99.90;;;;;;5034070;28;20545;-53
2023/12/27 09:35:04;;;;;;;6.15;3.95;;;7.60;99.90;;;;;;5034058;28;20029;-53
2023/12/27 09:37:30;;;;;;;5.78;4.18;;;7.60;99.90;;;;;;5033925;28;20478;-52
2023/12/27 09:39:56;;;;;;;5.63;3.85;;;7.70;99.90;;;;;;5034375;28;20043;-53
2023/12/27 09:42:22;;;;;;;8.07;3.72;;;7.70;99.90;;;;;;5033503;28;20112;-47
2023/12/27 09:44:49;;;;;;;5.22;4.18;;;7.80;99.90;;;;;;5033312;28;20021;-53
2023/12/27 09:47:17;;;;;;;5.05;3.78;;;7.80;99.90;;;;;;5034104;28;20040;-54
2023/12/27 09:49:43;;;;;;;7.32;4.35;;;7.80;99.90;;;;;;5032481;28;20029;-51
2023/12/27 09:52:08;;;;;;;6.97;3.72;;;7.90;99.90;;;;;;5033565;28;20074;-52
2023/12/27 09:54:34;;;;;;;8.88;4.40;;;7.90;99.90;;;;;;5031978;28;20022;-54
2023/12/27 09:57:00;;;;;;;7.57;4.53;;;7.90;99.90;;;;;;5033290;28;20075;-49
2023/12/27 09:59:31;;;;;;;8.43;5.35;;;8.00;99.90;;;;;;5032498;28;20026;-52
2023/12/27 10:02:01;;;;;;;11.85;5.75;;;8.00;99.90;;;;;;5033333;28;20021;-53
2023/12/27 10:05:06;;;;;;;8.60;5.13;;;8.10;99.90;;;;;;5028479;28;20552;-50
2023/12/27 10:07:32;;;;;;;9.35;4.40;;;8.20;99.90;;;;;;5033344;28;20083;-54
2023/12/27 10:09:58;;;;;;;9.38;4.72;;;8.20;99.90;;;;;;5033076;28;20064;-54
2023/12/27 10:12:24;;;;;;;8.68;4.57;;;8.20;99.90;;;;;;5032726;28;20065;-51
2023/12/27 10:14:52;;;;;;;7.88;5.47;;;8.30;99.90;;;;;;5032886;28;20041;-50
2023/12/27 10:17:19;;;;;;;10.00;4.93;;;8.30;99.90;;;;;;5033327;28;20033;-55
2023/12/27 10:19:45;;;;;;;8.40;4.72;;;8.40;99.90;;;;;;5033104;28;20478;-52
2023/12/27 10:22:12;;;;;;;5.30;4.05;;;8.40;99.90;;;;;;5032498;28;20466;-49
2023/12/27 10:24:38;;;;;;;7.85;4.72;;;8.50;99.90;;;;;;5032849;28;20117;-54
2023/12/27 10:27:06;;;;;;;11.52;4.55;;;8.50;99.90;;;;;;5033009;28;20022;-55
2023/12/27 10:29:32;;;;;;;5.72;4.53;;;8.50;99.90;;;;;;5041162;28;20111;-51
2023/12/27 10:32:06;;;;;;;7.13;4.53;;;8.50;99.90;;;;;;5032355;28;20543;-55
2023/12/27 10:34:33;;;;;;;9.32;5.32;;;8.50;99.90;;;;;;5033361;28;20487;-50
2023/12/27 10:36:59;;;;;;;6.57;4.35;;;8.60;99.90;;;;;;5032810;28;20496;-52
2023/12/27 10:39:25;;;;;;;6.63;4.90;;;8.60;99.90;;;;;;5031380;28;20152;-53
2023/12/27 10:41:54;;;;;;;9.73;4.85;;;8.60;99.90;;;;;;5032496;28;20064;-52
2023/12/27 10:44:21;;;;;;;6.28;4.63;;;8.60;99.90;;;;;;5032848;28;20057;-54
2023/12/27 10:46:48;;;;;;;7.38;4.75;;;8.70;99.90;;;;;;5032910;28;20025;-51
2023/12/27 10:49:15;;;;;;;8.48;4.03;;;8.70;99.90;;;;;;5031288;28;20021;-52
2023/12/27 10:51:42;;;;;;;7.70;4.80;;;8.80;99.90;;;;;;5033066;28;20648;-52
2023/12/27 10:54:09;;;;;;;7.53;4.80;;;8.80;99.90;;;;;;5031367;28;20031;-52
2023/12/27 10:56:37;;;;;;;12.60;4.63;;;8.90;99.90;;;;;;5031017;28;20057;-53
2023/12/27 10:59:04;;;;;;;5.85;3.42;;;8.90;99.90;;;;;;5032298;28;20032;-61
2023/12/27 11:01:32;;;;;;;5.75;3.80;;;9.00;99.90;;;;;;5031314;28;20034;-50
2023/12/27 11:03:59;;;;;;;;;;;9.00;99.90;;;;;;5033267;28;20492;-53
2023/12/27 11:06:28;;;;;;;4.38;3.55;;;9.00;99.90;;;;;;5030621;28;20067;-53
2023/12/27 11:08:54;;;;;;;9.30;4.40;;;9.00;99.90;;;;;;5032177;28;20029;-53
2023/12/27 11:11:25;;;;;;;4.65;2.88;;;9.00;99.90;;;;;;5032367;28;20460;-53
2023/12/27 11:13:52;;;;;;;5.60;3.70;;;9.10;99.90;;;;;;5031606;28;20031;-52
2023/12/27 11:16:21;;;;;;;4.82;2.75;;;9.20;99.90;;;;;;5031657;28;20076;-52
2023/12/27 11:18:48;;;;;;;6.00;3.33;;;9.20;99.90;;;;;;5025584;28;20482;-47
2023/12/27 11:21:15;;;;;;;3.20;2.67;;;9.20;99.90;;;;;;5032125;28;20071;-51
2023/12/27 11:23:40;;;;;;;4.20;3.25;;;9.20;99.90;;;;;;5032635;28;20470;-52
2023/12/27 11:26:06;;;;;;;4.30;3.50;;;9.20;99.90;;;;;;5030506;28;20021;-53
2023/12/27 11:28:33;;;;;;;5.75;3.03;;;9.30;99.90;;;;;;5032202;28;20033;-52
2023/12/27 11:31:00;;;;;;;7.60;3.20;;;9.30;99.90;;;;;;5032385;28;20014;-49
2023/12/27 11:33:25;;;;;;;3.28;2.72;;;9.30;99.90;;;;;;5032715;28;20478;-38
2023/12/27 11:35:51;;;;;;;4.60;2.65;;;9.40;99.90;;;;;;5032116;28;20075;-39
2023/12/27 11:38:20;;;;;;;8.13;3.08;;;9.50;99.90;;;;;;5032543;28;20017;-39
2023/12/27 11:40:46;;;;;;;5.30;3.35;;;9.50;99.90;;;;;;5031461;28;20033;-38
2023/12/27 11:43:29;;;;;;;6.25;2.92;;;9.50;99.90;;;;;;5032403;28;20421;-38
2023/12/27 11:46:06;;;;;;;5.13;3.13;;;9.50;99.90;;;;;;5026877;28;20022;-38
2023/12/27 11:48:38;;;;;;;6.80;2.50;;;9.60;99.90;;;;;;5016257;28;20544;-40
2023/12/27 11:51:35;;;;;;;2.95;2.63;;;9.60;99.90;;;;;;5016096;28;20032;-38
2023/12/27 11:54:02;;;;;;;3.97;2.65;;;9.60;99.90;;;;;;5031335;28;20490;-39
2023/12/27 11:56:35;;;;;;;4.95;2.63;;;9.60;99.90;;;;;;5024063;28;20079;-37
2023/12/27 11:59:06;;;;;;;4.68;2.60;;;9.70;99.90;;;;;;5035347;28;20512;-39
2023/12/27 12:01:36;;;;;;;3.88;2.83;;;9.70;99.90;;;;;;5034282;28;20025;-38
2023/12/27 12:04:17;;;;;;;4.95;2.58;;;9.70;99.90;;;;;;5035631;28;20060;-38
2023/12/27 12:06:54;;;;;;;3.55;2.85;;;9.80;99.90;;;;;;5035421;28;20028;-39
2023/12/27 12:09:37;;;;;;;6.35;2.72;;;9.80;99.90;;;;;;5035492;28;20029;-37
2023/12/27 12:12:22;;;;;;;5.18;3.30;;;9.80;99.90;;;;;;5033569;28;20410;-38
2023/12/27 12:14:55;;;;;;;2.72;2.42;;;9.70;99.90;;;;;;5035289;28;20452;-37
2023/12/27 12:17:21;;;;;;;4.38;3.15;;;9.70;99.90;;;;;;5035218;28;20497;-37
2023/12/27 12:19:51;;;;;;;4.75;2.72;;;9.70;99.90;;;;;;5034964;28;20481;-39
2023/12/27 12:22:18;;;;;;;6.22;3.25;;;9.80;99.90;;;;;;5034834;28;20478;-37
2023/12/27 12:24:47;;;;;;;3.25;2.70;;;9.80;99.90;;;;;;5034771;28;20428;-36
2023/12/27 12:27:20;;;;;;;5.20;2.80;;;9.80;99.90;;;;;;5034742;28;20022;-38
2023/12/27 12:29:46;;;;;;;3.50;3.08;;;9.80;99.90;;;;;;5033008;28;20478;-37
2023/12/27 12:32:13;;;;;;;5.47;2.90;;;9.80;99.90;;;;;;5034349;28;20108;-38
2023/12/27 12:34:39;;;;;;;9.10;2.90;;;9.80;99.90;;;;;;5034484;28;20496;-38
2023/12/27 12:37:05;;;;;;;4.07;3.28;;;9.80;99.90;;;;;;5034865;28;20047;-37
2023/12/27 12:39:30;;;;;;;5.90;2.75;;;9.90;99.90;;;;;;5033297;28;20029;-37
2023/12/27 12:41:56;;;;;;;4.97;2.90;;;9.80;99.90;;;;;;5034555;28;20080;-38
2023/12/27 12:44:22;;;;;;;6.72;2.92;;;9.90;99.90;;;;;;5034492;28;20477;-37
2023/12/27 12:46:47;;;;;;;8.43;3.65;;;9.90;99.90;;;;;;5034688;28;20470;-38